Time;durP1;ratioP1;P1;durP2;ratioP2;P2;SDS_P1;SDS_P2;PMS_P1;PMS_P2;Temp;Humidity;BMP_temperature;BMP_pressure;BME280_temperature;BME280_humidity;BME280_pressure;Samples;Min_cycle;Max_cycle;Signal;HPM_P1;HPM_P2
2022/07/10 00:00:17;;;;;;;1.50;0.80;;;21.60;99.90;;;;;;1038395;28;20013;-67
2022/07/10 00:00:48;;;;;;;2.92;1.00;;;21.60;99.90;;;;;;1039536;28;20616;-66
2022/07/10 00:01:18;;;;;;;2.63;1.00;;;21.60;99.90;;;;;;1043205;28;20345;-68
2022/07/10 00:01:49;;;;;;;1.67;0.87;;;21.60;99.90;;;;;;1043375;28;20128;-67
2022/07/10 00:02:20;;;;;;;2.17;1.00;;;21.60;99.90;;;;;;1046735;28;20017;-68
2022/07/10 00:02:52;;;;;;;2.55;1.00;;;21.60;99.90;;;;;;1046883;28;20041;-67
2022/07/10 00:03:23;;;;;;;3.65;1.52;;;21.60;99.90;;;;;;1046625;28;20017;-68
2022/07/10 00:03:54;;;;;;;2.55;1.05;;;21.60;99.90;;;;;;1047156;28;20096;-68
2022/07/10 00:04:25;;;;;;;3.88;1.15;;;21.60;99.90;;;;;;1047132;28;20199;-68
2022/07/10 00:04:55;;;;;;;1.03;0.73;;;21.50;99.90;;;;;;1046949;28;20130;-67
2022/07/10 00:05:26;;;;;;;2.00;0.90;;;21.60;99.90;;;;;;1046711;28;20082;-69
2022/07/10 00:05:57;;;;;;;3.33;1.30;;;21.50;99.90;;;;;;1046877;28;20102;-67
2022/07/10 00:06:27;;;;;;;2.40;0.70;;;21.50;99.90;;;;;;1046994;28;20273;-69
2022/07/10 00:06:58;;;;;;;1.83;0.97;;;21.50;99.90;;;;;;1046663;28;20051;-67
2022/07/10 00:07:29;;;;;;;2.10;1.03;;;21.50;99.90;;;;;;1042833;28;20021;-67
2022/07/10 00:07:59;;;;;;;2.40;0.80;;;21.50;99.90;;;;;;1042904;28;20096;-67
2022/07/10 00:08:30;;;;;;;1.53;1.10;;;21.50;99.90;;;;;;1046921;28;20020;-67
2022/07/10 00:09:00;;;;;;;2.83;0.97;;;21.50;99.90;;;;;;1046794;28;20083;-68
2022/07/10 00:09:31;;;;;;;1.67;1.00;;;21.50;99.90;;;;;;1046956;28;20028;-69
2022/07/10 00:10:04;;;;;;;4.88;1.38;;;21.50;99.90;;;;;;1046843;28;20016;-67
2022/07/10 00:10:35;;;;;;;2.55;0.90;;;21.50;99.90;;;;;;1043175;28;20025;-67
2022/07/10 00:11:05;;;;;;;2.75;1.00;;;21.50;99.90;;;;;;1042887;28;20091;-67
2022/07/10 00:11:37;;;;;;;1.63;0.87;;;21.50;99.90;;;;;;1042710;28;20167;-67
2022/07/10 00:12:07;;;;;;;1.90;1.33;;;21.50;99.90;;;;;;1043063;28;20025;-67
2022/07/10 00:12:38;;;;;;;2.97;0.97;;;21.50;99.90;;;;;;1043219;28;20017;-67
2022/07/10 00:13:08;;;;;;;2.23;0.97;;;21.50;99.90;;;;;;1043055;28;20028;-67
2022/07/10 00:13:39;;;;;;;3.60;1.00;;;21.50;99.90;;;;;;1043066;28;20021;-67
2022/07/10 00:14:10;;;;;;;2.80;1.03;;;21.50;99.90;;;;;;1043021;28;20048;-67
2022/07/10 00:14:41;;;;;;;3.37;1.33;;;21.50;99.90;;;;;;1043094;28;20024;-67
2022/07/10 00:15:13;;;;;;;1.70;1.00;;;21.50;99.90;;;;;;1042434;28;20021;-69
2022/07/10 00:15:43;;;;;;;1.63;0.93;;;21.50;99.90;;;;;;1042905;28;20043;-69
2022/07/10 00:16:14;;;;;;;3.23;0.90;;;21.50;99.90;;;;;;1042626;28;20017;-67
2022/07/10 00:16:45;;;;;;;2.20;1.10;;;21.50;99.90;;;;;;1042881;28;20484;-68
2022/07/10 00:17:16;;;;;;;2.67;1.10;;;21.60;99.90;;;;;;1042519;28;20104;-67
2022/07/10 00:17:47;;;;;;;2.80;1.20;;;21.50;99.90;;;;;;1039776;28;20030;-67
2022/07/10 00:18:18;;;;;;;2.30;1.07;;;21.50;99.90;;;;;;1038629;28;20025;-67
2022/07/10 00:18:48;;;;;;;2.45;1.10;;;21.50;99.90;;;;;;1038565;28;20288;-68
2022/07/10 00:19:19;;;;;;;1.47;0.87;;;21.50;99.90;;;;;;1034503;28;20124;-67
2022/07/10 00:19:50;;;;;;;1.87;1.00;;;21.50;99.90;;;;;;1038716;28;20074;-67
2022/07/10 00:20:20;;;;;;;2.80;1.10;;;21.50;99.90;;;;;;1034477;28;20461;-67
2022/07/10 00:20:51;;;;;;;2.30;1.00;;;21.50;99.90;;;;;;1038812;28;20452;-67
2022/07/10 00:21:21;;;;;;;2.07;1.00;;;21.60;99.90;;;;;;1042651;28;20123;-68
2022/07/10 00:21:52;;;;;;;2.57;0.93;;;21.60;99.90;;;;;;1042864;28;20836;-67
2022/07/10 00:22:23;;;;;;;1.97;1.10;;;21.50;99.90;;;;;;1042845;28;20083;-68
2022/07/10 00:22:53;;;;;;;3.77;1.17;;;21.60;99.90;;;;;;1043237;28;20104;-68
2022/07/10 00:23:24;;;;;;;2.43;0.93;;;21.50;99.90;;;;;;1043042;28;20024;-67
2022/07/10 00:23:55;;;;;;;2.63;1.13;;;21.50;99.90;;;;;;1043129;28;20067;-68
2022/07/10 00:24:25;;;;;;;1.40;0.90;;;21.50;99.90;;;;;;1042485;28;20661;-69
2022/07/10 00:24:57;;;;;;;1.85;1.15;;;21.50;99.90;;;;;;1042777;28;20021;-67
2022/07/10 00:25:28;;;;;;;2.03;0.90;;;21.50;99.90;;;;;;1042436;28;20041;-67
2022/07/10 00:25:58;;;;;;;3.77;1.27;;;21.50;99.90;;;;;;1042876;28;20013;-67
2022/07/10 00:26:29;;;;;;;1.67;0.80;;;21.50;99.90;;;;;;1042141;28;20634;-67
2022/07/10 00:26:59;;;;;;;3.83;1.00;;;21.50;99.90;;;;;;1042835;28;20119;-66
2022/07/10 00:27:30;;;;;;;2.70;1.20;;;21.50;99.90;;;;;;1043015;28;20095;-67
2022/07/10 00:28:00;;;;;;;1.53;0.90;;;21.50;99.90;;;;;;1043109;28;20104;-68
2022/07/10 00:28:31;;;;;;;2.17;1.00;;;21.50;99.90;;;;;;1042767;28;20013;-66
2022/07/10 00:29:02;;;;;;;2.57;1.13;;;21.50;99.90;;;;;;1038617;28;20133;-67
2022/07/10 00:29:32;;;;;;;3.07;1.00;;;21.50;99.90;;;;;;1038670;28;20078;-68
2022/07/10 00:30:04;;;;;;;1.63;0.93;;;21.50;99.90;;;;;;1038809;28;20014;-66
2022/07/10 00:30:34;;;;;;;1.52;0.90;;;21.50;99.90;;;;;;1042778;28;20013;-68
2022/07/10 00:31:05;;;;;;;1.97;0.80;;;21.50;99.90;;;;;;1042965;28;20029;-66
2022/07/10 00:31:37;;;;;;;2.45;0.90;;;21.40;99.90;;;;;;1042543;28;20029;-66
2022/07/10 00:32:08;;;;;;;2.45;1.17;;;21.40;99.90;;;;;;1042556;28;20619;-66
2022/07/10 00:32:38;;;;;;;3.00;1.15;;;21.40;99.90;;;;;;1043660;28;20080;-66
2022/07/10 00:33:09;;;;;;;2.13;1.10;;;21.40;99.90;;;;;;1046845;28;20115;-66
2022/07/10 00:33:39;;;;;;;1.97;0.83;;;21.40;99.90;;;;;;1046866;28;20036;-67
2022/07/10 00:34:11;;;;;;;2.77;1.10;;;21.40;99.90;;;;;;1046818;28;20017;-68
2022/07/10 00:34:42;;;;;;;1.55;1.00;;;21.40;99.90;;;;;;1046973;28;20419;-67
2022/07/10 00:35:12;;;;;;;1.83;1.00;;;21.40;99.90;;;;;;1046574;28;20412;-68
2022/07/10 00:35:43;;;;;;;3.20;1.00;;;21.40;99.90;;;;;;1046951;28;20016;-67
2022/07/10 00:36:14;;;;;;;3.37;1.10;;;21.40;99.90;;;;;;1046662;28;20425;-68
2022/07/10 00:36:44;;;;;;;2.65;1.10;;;21.40;99.90;;;;;;1047159;28;20507;-67
2022/07/10 00:37:15;;;;;;;1.53;0.90;;;21.40;99.90;;;;;;1046559;28;20504;-67
2022/07/10 00:37:46;;;;;;;2.87;1.20;;;21.40;99.90;;;;;;1046915;28;20059;-67
2022/07/10 00:38:16;;;;;;;3.53;1.17;;;21.40;99.90;;;;;;1046465;28;20090;-67
2022/07/10 00:38:47;;;;;;;1.47;0.73;;;21.40;99.90;;;;;;1046949;28;20569;-67
2022/07/10 00:39:17;;;;;;;2.33;1.17;;;21.40;99.90;;;;;;1046664;28;20472;-67
2022/07/10 00:39:48;;;;;;;0.97;0.70;;;21.30;99.90;;;;;;1046992;28;20024;-66
2022/07/10 00:40:19;;;;;;;2.33;1.33;;;21.30;99.90;;;;;;1046537;28;20021;-66
2022/07/10 00:40:50;;;;;;;2.88;1.10;;;21.30;99.90;;;;;;1046918;28;20020;-66
2022/07/10 00:41:21;;;;;;;2.93;1.13;;;21.30;99.90;;;;;;1046477;28;20024;-66
2022/07/10 00:41:52;;;;;;;2.53;1.17;;;21.30;99.90;;;;;;1046812;28;20416;-67
2022/07/10 00:42:22;;;;;;;2.23;1.00;;;21.30;99.90;;;;;;1046718;28;20016;-66
2022/07/10 00:42:53;;;;;;;2.90;1.10;;;21.30;99.90;;;;;;1046958;28;20332;-67
2022/07/10 00:43:24;;;;;;;1.73;1.00;;;21.30;99.90;;;;;;1046937;28;20049;-67
2022/07/10 00:43:59;;;;;;;2.43;1.00;;;21.30;99.90;;;;;;1047261;28;20021;-67
2022/07/10 00:44:30;;;;;;;1.73;0.93;;;21.30;99.90;;;;;;1047146;28;20009;-67
2022/07/10 00:45:01;;;;;;;3.92;1.25;;;21.30;99.90;;;;;;1047201;28;20095;-68
2022/07/10 00:45:31;;;;;;;5.03;1.40;;;21.30;99.90;;;;;;1046538;28;20012;-69
2022/07/10 00:46:02;;;;;;;1.60;0.80;;;21.30;99.90;;;;;;1046838;28;20442;-69
2022/07/10 00:46:33;;;;;;;2.27;0.93;;;21.30;99.90;;;;;;1046689;28;20452;-68
2022/07/10 00:47:05;;;;;;;3.05;1.10;;;21.30;99.90;;;;;;1047014;28;20109;-68
2022/07/10 00:47:36;;;;;;;2.22;0.95;;;21.30;99.90;;;;;;1046369;28;20016;-67
2022/07/10 00:48:09;;;;;;;2.80;1.00;;;21.30;99.90;;;;;;1046798;28;20020;-68
2022/07/10 00:48:39;;;;;;;2.90;1.38;;;21.30;99.90;;;;;;1046619;28;20008;-67
2022/07/10 00:49:10;;;;;;;4.30;1.40;;;21.30;99.90;;;;;;1047044;28;20585;-68
2022/07/10 00:49:40;;;;;;;1.33;0.87;;;21.30;99.90;;;;;;1046474;28;20534;-68
2022/07/10 00:50:12;;;;;;;1.63;1.00;;;21.30;99.90;;;;;;1046828;28;20074;-69
2022/07/10 00:50:45;;;;;;;2.30;1.00;;;21.30;99.90;;;;;;1046737;28;20029;-68
2022/07/10 00:51:18;;;;;;;2.42;1.27;;;21.30;99.90;;;;;;1046722;28;20550;-68
2022/07/10 00:51:49;;;;;;;2.63;1.27;;;21.30;99.90;;;;;;1046676;28;20048;-67
2022/07/10 00:52:20;;;;;;;3.13;1.20;;;21.30;99.90;;;;;;1042577;28;20025;-68
2022/07/10 00:52:51;;;;;;;3.10;0.73;;;21.30;99.90;;;;;;1043126;28;20025;-68
2022/07/10 00:53:21;;;;;;;1.53;0.90;;;21.30;99.90;;;;;;1046850;28;20095;-70
2022/07/10 00:53:53;;;;;;;2.70;1.10;;;21.30;99.90;;;;;;1046502;28;20035;-67
2022/07/10 00:54:24;;;;;;;3.17;1.10;;;21.30;99.90;;;;;;1046829;28;20020;-68
2022/07/10 00:54:55;;;;;;;3.10;1.10;;;21.30;99.90;;;;;;1046423;28;20059;-69
2022/07/10 00:55:26;;;;;;;4.65;1.27;;;21.30;99.90;;;;;;1042571;28;20021;-68
2022/07/10 00:55:56;;;;;;;1.97;1.13;;;21.30;99.90;;;;;;1042684;28;20029;-68
2022/07/10 00:56:28;;;;;;;2.43;1.20;;;21.30;99.90;;;;;;1046995;28;20251;-68
2022/07/10 00:57:00;;;;;;;1.15;0.90;;;21.30;99.90;;;;;;1046985;28;20028;-69
2022/07/10 00:57:31;;;;;;;1.65;1.00;;;21.30;99.90;;;;;;1046848;28;20025;-67
2022/07/10 00:58:05;;;;;;;2.05;1.10;;;21.30;99.90;;;;;;1046548;28;20021;-68
2022/07/10 00:58:36;;;;;;;2.83;0.93;;;21.30;99.90;;;;;;1046778;28;20423;-69
2022/07/10 00:59:09;;;;;;;3.78;1.08;;;21.30;99.90;;;;;;1046502;28;20556;-68
2022/07/10 00:59:40;;;;;;;0.95;0.90;;;21.30;99.90;;;;;;1046653;28;20506;-68
2022/07/10 01:00:11;;;;;;;3.70;1.40;;;21.30;99.90;;;;;;1042575;28;20025;-67
2022/07/10 01:00:42;;;;;;;2.33;1.20;;;21.20;99.90;;;;;;1043274;28;20053;-68
2022/07/10 01:01:13;;;;;;;3.22;1.00;;;21.20;99.90;;;;;;1046491;28;20142;-69
2022/07/10 01:01:44;;;;;;;4.65;1.00;;;21.20;99.90;;;;;;1043044;28;20055;-68
2022/07/10 01:02:16;;;;;;;2.87;1.47;;;21.20;99.90;;;;;;1046695;28;20030;-68
2022/07/10 01:02:47;;;;;;;2.22;0.93;;;21.20;99.90;;;;;;1042404;28;20028;-68
2022/07/10 01:03:17;;;;;;;3.40;1.10;;;21.20;99.90;;;;;;1042816;28;20013;-67
2022/07/10 01:03:49;;;;;;;1.90;0.90;;;21.20;99.90;;;;;;1046932;28;20109;-68
2022/07/10 01:04:20;;;;;;;2.95;0.90;;;21.20;99.90;;;;;;1042400;28;20032;-69
2022/07/10 01:04:51;;;;;;;2.83;1.10;;;21.20;99.90;;;;;;1046936;28;20045;-67
2022/07/10 01:05:22;;;;;;;3.47;1.10;;;21.20;99.90;;;;;;1046625;28;20053;-68
2022/07/10 01:05:53;;;;;;;2.20;0.87;;;21.20;99.90;;;;;;1042766;28;20021;-69
2022/07/10 01:06:23;;;;;;;2.33;1.23;;;21.20;99.90;;;;;;1046687;28;20099;-68
2022/07/10 01:06:54;;;;;;;2.80;1.27;;;21.20;99.90;;;;;;1038363;28;20516;-68
2022/07/10 01:07:25;;;;;;;3.27;1.07;;;21.20;99.90;;;;;;1038601;28;20584;-69
2022/07/10 01:07:56;;;;;;;1.20;0.87;;;21.20;99.90;;;;;;1042442;28;20714;-67
2022/07/10 01:08:27;;;;;;;2.35;1.08;;;21.20;99.90;;;;;;1042668;28;20021;-68
2022/07/10 01:08:58;;;;;;;1.58;1.17;;;21.20;99.90;;;;;;1042884;28;20059;-68
2022/07/10 01:09:29;;;;;;;1.57;1.00;;;21.20;99.90;;;;;;1046373;28;20021;-67
2022/07/10 01:10:02;;;;;;;2.33;1.03;;;21.20;99.90;;;;;;1042776;28;20476;-69
2022/07/10 01:10:33;;;;;;;3.72;1.35;;;21.20;99.90;;;;;;1043003;28;20025;-68
2022/07/10 01:11:04;;;;;;;2.47;1.10;;;21.20;99.90;;;;;;1042934;28;20487;-66
2022/07/10 01:11:37;;;;;;;2.70;0.95;;;21.20;99.90;;;;;;1042473;28;20052;-67
2022/07/10 01:12:10;;;;;;;1.25;0.90;;;21.20;99.90;;;;;;1042633;28;20021;-66
2022/07/10 01:12:41;;;;;;;4.15;1.23;;;21.20;99.90;;;;;;1038299;28;20022;-67
2022/07/10 01:13:12;;;;;;;1.67;0.98;;;21.20;99.90;;;;;;1038431;28;20017;-67
2022/07/10 01:13:43;;;;;;;2.43;1.63;;;21.20;99.90;;;;;;1038995;28;20125;-68
2022/07/10 01:14:15;;;;;;;2.47;1.20;;;21.20;99.90;;;;;;1042468;28;20043;-67
2022/07/10 01:14:46;;;;;;;3.17;1.40;;;21.20;99.90;;;;;;1042544;28;20021;-67
2022/07/10 01:15:17;;;;;;;2.57;1.10;;;21.10;99.90;;;;;;1042470;28;20100;-68
2022/07/10 01:15:48;;;;;;;2.00;1.17;;;21.10;99.90;;;;;;1042809;28;20025;-67
2022/07/10 01:16:18;;;;;;;2.95;1.10;;;21.10;99.90;;;;;;1042800;28;20067;-67
2022/07/10 01:16:49;;;;;;;1.90;1.00;;;21.10;99.90;;;;;;1042610;28;20102;-67
2022/07/10 01:17:20;;;;;;;2.77;1.10;;;21.20;99.90;;;;;;1042354;28;20400;-68
2022/07/10 01:17:53;;;;;;;3.13;1.10;;;21.10;99.90;;;;;;1044445;28;20127;-68
2022/07/10 01:18:25;;;;;;;1.60;1.02;;;21.20;99.90;;;;;;1046199;28;20294;-67
2022/07/10 01:18:57;;;;;;;2.88;1.27;;;21.10;99.90;;;;;;1045823;28;20105;-69
2022/07/10 01:19:28;;;;;;;1.17;0.70;;;21.10;99.90;;;;;;1046996;28;20138;-67
2022/07/10 01:20:05;;;;;;;2.83;1.00;;;21.10;99.90;;;;;;1046601;28;20020;-67
2022/07/10 01:20:35;;;;;;;1.35;0.98;;;21.10;99.90;;;;;;1046582;28;20321;-67
2022/07/10 01:21:22;;;;;;;1.40;1.00;;;21.10;99.90;;;;;;1046809;28;20017;-69
2022/07/10 01:21:53;;;;;;;2.08;1.17;;;21.10;99.90;;;;;;1046758;28;20028;-68
2022/07/10 01:22:23;;;;;;;1.88;1.20;;;21.10;99.90;;;;;;1042359;28;20151;-68
2022/07/10 01:22:54;;;;;;;3.40;1.17;;;21.10;99.90;;;;;;1042638;28;20025;-67
2022/07/10 01:23:25;;;;;;;2.67;1.30;;;21.10;99.90;;;;;;1042501;28;20029;-67
2022/07/10 01:23:56;;;;;;;2.58;1.10;;;21.10;99.90;;;;;;1046818;28;20025;-67
2022/07/10 01:24:26;;;;;;;3.73;1.43;;;21.20;99.90;;;;;;1042400;28;20029;-67
2022/07/10 01:24:57;;;;;;;3.73;1.17;;;21.10;99.90;;;;;;1038477;28;20170;-67
2022/07/10 01:25:28;;;;;;;2.83;1.00;;;21.10;99.90;;;;;;1042404;28;20123;-67
2022/07/10 01:26:00;;;;;;;3.28;1.00;;;21.10;99.90;;;;;;1042837;28;20353;-67
2022/07/10 01:26:31;;;;;;;2.35;1.02;;;21.10;99.90;;;;;;1046719;28;20991;-68
2022/07/10 01:27:02;;;;;;;1.80;0.90;;;21.10;99.90;;;;;;1047297;28;20631;-67
2022/07/10 01:27:32;;;;;;;3.93;1.17;;;21.10;99.90;;;;;;1046777;28;20510;-68
2022/07/10 01:28:03;;;;;;;5.40;1.37;;;21.10;99.90;;;;;;1047324;28;20311;-67
2022/07/10 01:28:34;;;;;;;3.30;1.08;;;21.10;99.90;;;;;;1046721;28;20074;-67
2022/07/10 01:29:06;;;;;;;1.63;1.00;;;21.10;99.90;;;;;;1043929;28;20028;-67
2022/07/10 01:29:37;;;;;;;4.63;1.60;;;21.10;99.90;;;;;;1042210;28;20025;-67
2022/07/10 01:30:09;;;;;;;2.03;0.90;;;21.10;99.90;;;;;;1038549;28;20033;-67
2022/07/10 01:30:39;;;;;;;3.65;1.15;;;21.10;99.90;;;;;;1038735;28;20120;-67
2022/07/10 01:31:10;;;;;;;3.27;1.27;;;21.10;99.90;;;;;;1042662;28;20128;-67
2022/07/10 01:31:41;;;;;;;2.10;1.00;;;21.20;99.90;;;;;;1038304;28;20032;-68
2022/07/10 01:32:12;;;;;;;1.85;1.10;;;21.20;99.90;;;;;;1042599;28;20021;-68
2022/07/10 01:32:42;;;;;;;3.57;1.57;;;21.20;99.90;;;;;;1042541;28;20059;-67
2022/07/10 01:33:13;;;;;;;2.47;1.00;;;21.20;99.90;;;;;;1042649;28;20017;-67
2022/07/10 01:33:44;;;;;;;1.87;0.97;;;21.20;99.90;;;;;;1042795;28;20040;-69
2022/07/10 01:34:15;;;;;;;2.55;0.93;;;21.20;99.90;;;;;;1042533;28;20013;-68
2022/07/10 01:34:47;;;;;;;1.42;0.82;;;21.20;99.90;;;;;;1042410;28;20017;-67
2022/07/10 01:35:18;;;;;;;1.27;0.90;;;21.20;99.90;;;;;;1042784;28;20021;-69
2022/07/10 01:35:49;;;;;;;3.38;1.10;;;21.20;99.90;;;;;;1042274;28;20151;-68
2022/07/10 01:36:21;;;;;;;1.77;1.10;;;21.20;99.90;;;;;;1042583;28;20048;-67
2022/07/10 01:36:52;;;;;;;3.28;1.05;;;21.20;99.90;;;;;;1038183;28;20275;-69
2022/07/10 01:37:23;;;;;;;1.73;0.93;;;21.10;99.90;;;;;;1038895;28;20025;-68
2022/07/10 01:37:53;;;;;;;1.60;0.70;;;21.10;99.90;;;;;;1042552;28;20586;-67
2022/07/10 01:38:24;;;;;;;2.83;1.07;;;21.10;99.90;;;;;;1038538;28;20029;-68
2022/07/10 01:38:55;;;;;;;3.30;1.10;;;21.10;99.90;;;;;;1043199;28;20032;-67
2022/07/10 01:39:26;;;;;;;2.88;1.42;;;21.10;99.90;;;;;;1043279;28;20846;-67
2022/07/10 01:39:59;;;;;;;2.03;1.05;;;21.10;99.90;;;;;;1039317;28;20069;-68
2022/07/10 01:40:30;;;;;;;2.03;0.90;;;21.10;99.90;;;;;;1039009;28;20124;-67
2022/07/10 01:41:01;;;;;;;2.77;1.20;;;21.10;99.90;;;;;;1039450;28;20013;-68
2022/07/10 01:41:34;;;;;;;2.17;1.00;;;21.10;99.90;;;;;;1039492;28;20093;-68
2022/07/10 01:42:05;;;;;;;1.95;1.23;;;21.10;99.90;;;;;;1043507;28;20044;-68
2022/07/10 01:42:37;;;;;;;2.80;1.00;;;21.10;99.90;;;;;;1043297;28;20014;-67
2022/07/10 01:43:08;;;;;;;2.60;1.45;;;21.00;99.90;;;;;;1043502;28;20112;-68
2022/07/10 01:43:42;;;;;;;1.97;0.97;;;21.00;99.90;;;;;;1043071;28;20040;-67
2022/07/10 01:44:12;;;;;;;1.88;1.02;;;21.00;99.90;;;;;;1045450;28;20001;-68
2022/07/10 01:44:43;;;;;;;1.20;0.90;;;21.00;99.90;;;;;;1047406;28;20008;-68
2022/07/10 01:45:17;;;;;;;2.80;1.30;;;21.00;99.90;;;;;;1047490;28;20613;-69
2022/07/10 01:45:48;;;;;;;2.55;1.08;;;21.00;99.90;;;;;;1047468;28;20045;-67
2022/07/10 01:46:19;;;;;;;2.67;1.10;;;21.00;99.90;;;;;;1047430;28;20012;-67
2022/07/10 01:46:50;;;;;;;3.03;1.15;;;21.00;99.90;;;;;;1043863;28;20017;-67
2022/07/10 01:47:24;;;;;;;2.40;0.80;;;21.00;99.90;;;;;;1047491;28;20017;-69
2022/07/10 01:47:54;;;;;;;3.10;1.30;;;21.00;99.90;;;;;;1047350;28;20013;-67
2022/07/10 01:48:29;;;;;;;4.23;1.93;;;21.00;99.90;;;;;;1047584;28;20029;-68
2022/07/10 01:48:59;;;;;;;5.00;1.40;;;21.00;99.90;;;;;;1047557;28;20024;-67
2022/07/10 01:49:31;;;;;;;2.50;1.07;;;21.00;99.90;;;;;;1047280;28;20036;-71
2022/07/10 01:50:03;;;;;;;2.25;1.20;;;21.00;99.90;;;;;;1043404;28;20037;-67
2022/07/10 01:50:34;;;;;;;3.65;1.42;;;21.00;99.90;;;;;;1047187;28;20847;-66
2022/07/10 01:51:05;;;;;;;2.60;0.90;;;21.00;99.90;;;;;;1047598;28;20115;-66
2022/07/10 01:51:36;;;;;;;2.22;1.20;;;21.00;99.90;;;;;;1047051;28;20044;-67
2022/07/10 01:52:07;;;;;;;3.47;1.10;;;21.00;99.90;;;;;;1043526;28;20048;-66
2022/07/10 01:52:37;;;;;;;2.22;0.80;;;21.00;99.90;;;;;;1043197;28;20013;-66
2022/07/10 01:53:08;;;;;;;2.83;1.00;;;21.00;99.90;;;;;;1043393;28;20006;-66
2022/07/10 01:53:41;;;;;;;4.00;1.30;;;21.00;99.90;;;;;;1039115;28;20495;-68
2022/07/10 01:54:11;;;;;;;2.17;0.93;;;21.00;99.90;;;;;;1043692;28;20534;-67
2022/07/10 01:54:42;;;;;;;3.07;1.40;;;20.90;99.90;;;;;;1043399;28;20484;-66
2022/07/10 01:55:13;;;;;;;3.40;1.33;;;20.90;99.90;;;;;;1043185;28;20047;-67
2022/07/10 01:55:43;;;;;;;3.80;1.10;;;20.90;99.90;;;;;;1039478;28;20014;-66
2022/07/10 01:56:15;;;;;;;3.10;1.43;;;20.90;99.90;;;;;;1039177;28;20013;-68
2022/07/10 01:56:46;;;;;;;3.47;1.10;;;20.90;99.90;;;;;;1043290;28;20013;-66
2022/07/10 01:57:16;;;;;;;1.87;1.07;;;20.90;99.90;;;;;;1043590;28;20035;-65
2022/07/10 01:57:47;;;;;;;2.10;1.33;;;20.90;99.90;;;;;;1043383;28;20011;-68
2022/07/10 01:58:17;;;;;;;3.27;1.40;;;20.90;99.90;;;;;;1039116;28;20021;-68
2022/07/10 01:58:48;;;;;;;2.93;1.07;;;20.90;99.90;;;;;;1043603;28;20444;-67
2022/07/10 01:59:19;;;;;;;2.37;0.93;;;20.90;99.90;;;;;;1039062;28;20020;-67
2022/07/10 01:59:50;;;;;;;1.25;1.00;;;20.90;99.90;;;;;;1043636;28;20005;-66
2022/07/10 02:00:20;;;;;;;2.50;1.00;;;20.90;99.90;;;;;;1047058;28;20066;-69
2022/07/10 02:00:51;;;;;;;2.73;1.20;;;20.90;99.90;;;;;;1043497;28;20075;-68
2022/07/10 02:01:22;;;;;;;2.53;0.90;;;20.90;99.90;;;;;;1043046;28;20017;-66
2022/07/10 02:01:53;;;;;;;3.20;1.20;;;20.90;99.90;;;;;;1043434;28;20017;-66
2022/07/10 02:02:24;;;;;;;3.13;1.10;;;20.90;99.90;;;;;;1039124;28;20013;-66
2022/07/10 02:04:42;;;;;;;1.98;0.93;;;20.90;99.90;;;;;;1043314;28;20198;-66
2022/07/10 02:05:13;;;;;;;2.78;0.88;;;20.90;99.90;;;;;;1043679;28;20017;-67
2022/07/10 02:05:43;;;;;;;4.17;1.37;;;20.90;99.90;;;;;;1043589;28;20017;-67
2022/07/10 02:06:14;;;;;;;2.87;1.00;;;20.90;99.90;;;;;;1043764;28;20024;-66
2022/07/10 02:06:45;;;;;;;1.10;0.90;;;20.90;99.90;;;;;;1047280;28;20017;-67
2022/07/10 02:07:18;;;;;;;1.97;1.03;;;20.90;99.90;;;;;;1047485;28;20013;-67
2022/07/10 02:07:49;;;;;;;2.92;1.15;;;20.90;99.90;;;;;;1047180;28;20031;-67
2022/07/10 02:08:19;;;;;;;3.27;1.00;;;20.90;99.90;;;;;;1047139;28;20188;-67
2022/07/10 02:08:50;;;;;;;2.43;1.20;;;20.90;99.90;;;;;;1047132;28;20385;-67
2022/07/10 02:09:21;;;;;;;2.13;1.23;;;20.90;99.90;;;;;;1047500;28;20066;-68
2022/07/10 02:09:51;;;;;;;4.23;1.10;;;20.90;99.90;;;;;;1043044;28;20053;-68
2022/07/10 02:10:22;;;;;;;2.87;1.10;;;21.00;99.90;;;;;;1043315;28;20448;-68
2022/07/10 02:10:52;;;;;;;2.73;1.03;;;21.00;99.90;;;;;;1043078;28;20013;-68
2022/07/10 02:11:23;;;;;;;3.20;1.23;;;20.90;99.90;;;;;;1043234;28;20009;-67
2022/07/10 02:11:54;;;;;;;2.77;1.40;;;20.90;99.90;;;;;;1047186;28;20013;-67
2022/07/10 02:12:24;;;;;;;3.23;0.93;;;20.90;99.90;;;;;;1043272;28;20047;-66
2022/07/10 02:12:55;;;;;;;2.60;1.25;;;20.90;99.90;;;;;;1043121;28;20305;-67
2022/07/10 02:13:27;;;;;;;3.00;0.97;;;20.90;99.90;;;;;;1043315;28;20020;-67
2022/07/10 02:13:58;;;;;;;2.00;0.98;;;20.90;99.90;;;;;;1039329;28;20021;-67
2022/07/10 02:14:28;;;;;;;1.87;0.97;;;20.90;99.90;;;;;;1039148;28;20014;-67
2022/07/10 02:15:01;;;;;;;3.37;1.30;;;20.90;99.90;;;;;;1039000;28;20025;-66
2022/07/10 02:15:32;;;;;;;2.28;1.33;;;20.90;99.90;;;;;;1039128;28;20016;-67
2022/07/10 02:16:03;;;;;;;2.47;1.10;;;20.90;99.90;;;;;;1039293;28;20025;-66
2022/07/10 02:16:34;;;;;;;1.58;1.08;;;20.90;99.90;;;;;;1039233;28;20629;-68
2022/07/10 02:17:06;;;;;;;2.88;1.10;;;20.90;99.90;;;;;;1039346;28;20017;-67
2022/07/10 02:17:36;;;;;;;1.27;0.77;;;20.90;99.90;;;;;;1042853;28;20721;-68
2022/07/10 02:18:08;;;;;;;2.23;1.37;;;20.90;99.90;;;;;;1043519;28;20654;-66
2022/07/10 02:18:39;;;;;;;1.77;1.00;;;20.90;99.90;;;;;;1042643;28;20013;-67
2022/07/10 02:19:09;;;;;;;1.63;1.05;;;20.90;99.90;;;;;;1039271;28;20041;-66
2022/07/10 02:19:40;;;;;;;2.43;1.20;;;20.90;99.90;;;;;;1043593;28;20013;-66
2022/07/10 02:20:11;;;;;;;2.57;0.90;;;20.90;99.90;;;;;;1047321;28;20471;-66
2022/07/10 02:20:41;;;;;;;2.57;0.93;;;20.90;99.90;;;;;;1047756;28;20827;-67
2022/07/10 02:21:12;;;;;;;3.73;1.10;;;20.90;99.90;;;;;;1047211;28;20414;-68
2022/07/10 02:21:43;;;;;;;2.73;1.20;;;20.90;99.90;;;;;;1043286;28;20539;-66
2022/07/10 02:22:14;;;;;;;2.13;1.30;;;20.80;99.90;;;;;;1043110;28;20023;-68
2022/07/10 02:22:45;;;;;;;2.25;0.98;;;20.80;99.90;;;;;;1039413;28;20506;-67
2022/07/10 02:23:16;;;;;;;2.30;1.08;;;20.80;99.90;;;;;;1039075;28;20513;-67
2022/07/10 02:23:46;;;;;;;1.40;0.90;;;20.80;99.90;;;;;;1039151;28;20026;-67
2022/07/10 02:24:17;;;;;;;1.93;0.90;;;20.80;99.90;;;;;;1039074;28;20104;-67
2022/07/10 02:24:48;;;;;;;4.90;0.93;;;20.80;99.90;;;;;;1043583;28;20024;-67
2022/07/10 02:25:18;;;;;;;3.67;1.20;;;20.80;99.90;;;;;;1042904;28;20020;-66
2022/07/10 02:25:49;;;;;;;1.87;1.00;;;20.80;99.90;;;;;;1047443;28;20020;-67
2022/07/10 02:26:20;;;;;;;2.23;1.00;;;20.80;99.90;;;;;;1047072;28;20031;-67
2022/07/10 02:26:51;;;;;;;2.88;1.60;;;20.80;99.90;;;;;;1047415;28;20024;-67
2022/07/10 02:27:22;;;;;;;4.47;1.30;;;20.80;99.90;;;;;;1042998;28;20027;-69
2022/07/10 02:27:56;;;;;;;2.35;1.25;;;20.80;99.90;;;;;;1043177;28;20318;-67
2022/07/10 02:28:27;;;;;;;2.55;1.15;;;20.80;99.90;;;;;;1038827;28;20675;-66
2022/07/10 02:28:58;;;;;;;2.58;1.15;;;20.80;99.90;;;;;;1039332;28;20021;-67
2022/07/10 02:29:28;;;;;;;3.40;1.37;;;20.80;99.90;;;;;;1035439;28;20152;-67
2022/07/10 02:29:59;;;;;;;2.77;1.10;;;20.80;99.90;;;;;;1039279;28;20056;-66
2022/07/10 02:30:30;;;;;;;2.77;1.00;;;20.80;99.90;;;;;;1038990;28;20096;-68
2022/07/10 02:31:01;;;;;;;2.53;1.10;;;20.80;99.90;;;;;;1035216;28;20077;-68
2022/07/10 02:31:40;;;;;;;3.42;1.23;;;20.80;99.90;;;;;;1038749;28;20044;-68
2022/07/10 02:32:10;;;;;;;;;;;20.80;99.90;;;;;;1041103;28;20045;-66
2022/07/10 02:32:41;;;;;;;2.87;0.93;;;20.80;99.90;;;;;;1042838;28;19915;-67
2022/07/10 02:33:11;;;;;;;2.27;1.23;;;20.80;99.90;;;;;;1040382;28;20021;-68
2022/07/10 02:33:42;;;;;;;3.13;1.10;;;20.80;99.90;;;;;;1043088;28;20684;-67
2022/07/10 02:34:14;;;;;;;2.90;1.23;;;20.80;99.90;;;;;;1043149;28;20653;-67
2022/07/10 02:34:44;;;;;;;2.13;1.23;;;20.80;99.90;;;;;;1043429;28;20400;-67
2022/07/10 02:35:15;;;;;;;4.10;1.20;;;20.80;99.90;;;;;;1047581;28;20454;-67
2022/07/10 02:35:47;;;;;;;3.28;1.17;;;20.80;99.90;;;;;;1042851;28;20036;-68
2022/07/10 02:36:17;;;;;;;2.60;0.85;;;20.70;99.90;;;;;;1043358;28;20025;-66
2022/07/10 02:36:48;;;;;;;1.63;1.10;;;20.70;99.90;;;;;;1043040;28;20048;-67
2022/07/10 02:37:19;;;;;;;2.27;1.00;;;20.70;99.90;;;;;;1043197;28;20024;-66
2022/07/10 02:37:50;;;;;;;4.47;1.10;;;20.70;99.90;;;;;;1043420;28;20017;-69
2022/07/10 02:38:20;;;;;;;2.65;1.20;;;20.70;99.90;;;;;;1042795;28;20017;-69
2022/07/10 02:38:51;;;;;;;2.87;1.27;;;20.70;99.90;;;;;;1043370;28;20033;-67
2022/07/10 02:39:23;;;;;;;1.93;1.00;;;20.70;99.90;;;;;;1042995;28;20099;-67
2022/07/10 02:39:54;;;;;;;2.25;1.20;;;20.70;99.90;;;;;;1043230;28;20032;-68
2022/07/10 02:40:24;;;;;;;2.73;1.23;;;20.70;99.90;;;;;;1040546;28;20021;-67
2022/07/10 02:40:55;;;;;;;1.77;1.10;;;20.70;99.90;;;;;;1043058;28;20018;-68
2022/07/10 02:41:25;;;;;;;3.60;1.20;;;20.70;99.90;;;;;;1043147;28;20134;-67
2022/07/10 02:41:56;;;;;;;2.37;1.07;;;20.70;99.90;;;;;;1047366;28;20020;-68
2022/07/10 02:42:27;;;;;;;2.87;1.40;;;20.70;99.90;;;;;;1047020;28;20027;-68
2022/07/10 02:42:58;;;;;;;1.83;0.97;;;20.70;99.90;;;;;;1047389;28;20095;-68
2022/07/10 02:43:28;;;;;;;2.00;1.00;;;20.70;99.90;;;;;;1046997;28;20046;-68
2022/07/10 02:43:59;;;;;;;2.67;1.07;;;20.80;99.90;;;;;;1047349;28;20016;-67